sensor_id;sensor_type;location;lat;lon;timestamp;temperature;humidity
70947;DHT22;58605;48.700;8.760;2023-08-17T00:01:50;18.90;92.60
70947;DHT22;58605;48.700;8.760;2023-08-17T00:04:16;18.90;92.60
70947;DHT22;58605;48.700;8.760;2023-08-17T00:06:44;19.00;92.40
70947;DHT22;58605;48.700;8.760;2023-08-17T00:09:12;19.10;92.40
70947;DHT22;58605;48.700;8.760;2023-08-17T00:11:39;19.10;92.20
70947;DHT22;58605;48.700;8.760;2023-08-17T00:14:05;19.10;92.00
70947;DHT22;58605;48.700;8.760;2023-08-17T00:16:32;19.10;92.10
70947;DHT22;58605;48.700;8.760;2023-08-17T00:18:58;19.00;91.90
70947;DHT22;58605;48.700;8.760;2023-08-17T00:21:24;18.90;91.90
70947;DHT22;58605;48.700;8.760;2023-08-17T00:23:52;18.90;92.00
70947;DHT22;58605;48.700;8.760;2023-08-17T00:26:18;18.90;92.30
70947;DHT22;58605;48.700;8.760;2023-08-17T00:28:44;19.00;92.40
70947;DHT22;58605;48.700;8.760;2023-08-17T00:31:10;19.10;92.00
70947;DHT22;58605;48.700;8.760;2023-08-17T00:33:36;19.10;91.60
70947;DHT22;58605;48.700;8.760;2023-08-17T00:36:03;19.00;91.50
70947;DHT22;58605;48.700;8.760;2023-08-17T00:38:29;18.80;91.70
70947;DHT22;58605;48.700;8.760;2023-08-17T00:40:57;18.70;91.90
70947;DHT22;58605;48.700;8.760;2023-08-17T00:43:23;18.50;92.20
70947;DHT22;58605;48.700;8.760;2023-08-17T00:45:49;18.30;92.30
70947;DHT22;58605;48.700;8.760;2023-08-17T00:48:16;18.20;92.60
70947;DHT22;58605;48.700;8.760;2023-08-17T00:50:42;18.10;92.80
70947;DHT22;58605;48.700;8.760;2023-08-17T00:53:09;18.00;92.70
70947;DHT22;58605;48.700;8.760;2023-08-17T00:55:41;17.90;92.80
70947;DHT22;58605;48.700;8.760;2023-08-17T00:58:09;17.90;92.90
70947;DHT22;58605;48.700;8.760;2023-08-17T01:00:35;17.90;93.00
70947;DHT22;58605;48.700;8.760;2023-08-17T01:03:02;17.80;93.40
70947;DHT22;58605;48.700;8.760;2023-08-17T01:05:28;17.80;93.60
70947;DHT22;58605;48.700;8.760;2023-08-17T01:07:55;17.80;93.90
70947;DHT22;58605;48.700;8.760;2023-08-17T01:10:21;17.80;94.00
70947;DHT22;58605;48.700;8.760;2023-08-17T01:12:55;17.80;94.10
70947;DHT22;58605;48.700;8.760;2023-08-17T01:15:29;17.90;94.00
70947;DHT22;58605;48.700;8.760;2023-08-17T01:18:02;17.90;93.90
70947;DHT22;58605;48.700;8.760;2023-08-17T01:20:31;17.90;93.80
70947;DHT22;58605;48.700;8.760;2023-08-17T01:23:06;17.90;93.90
70947;DHT22;58605;48.700;8.760;2023-08-17T01:25:33;17.80;93.90
70947;DHT22;58605;48.700;8.760;2023-08-17T01:28:03;17.80;94.00
70947;DHT22;58605;48.700;8.760;2023-08-17T01:30:34;17.80;94.30
70947;DHT22;58605;48.700;8.760;2023-08-17T01:33:07;17.80;93.90
70947;DHT22;58605;48.700;8.760;2023-08-17T01:35:46;17.80;93.90
70947;DHT22;58605;48.700;8.760;2023-08-17T01:38:18;17.80;93.70
70947;DHT22;58605;48.700;8.760;2023-08-17T01:40:46;17.70;93.90
70947;DHT22;58605;48.700;8.760;2023-08-17T01:43:13;17.70;94.10
70947;DHT22;58605;48.700;8.760;2023-08-17T01:45:40;17.80;94.10
70947;DHT22;58605;48.700;8.760;2023-08-17T01:48:06;17.90;94.10
70947;DHT22;58605;48.700;8.760;2023-08-17T01:50:32;17.90;94.10
70947;DHT22;58605;48.700;8.760;2023-08-17T01:52:58;17.90;94.00
70947;DHT22;58605;48.700;8.760;2023-08-17T01:55:26;17.90;94.10
70947;DHT22;58605;48.700;8.760;2023-08-17T01:57:53;18.00;93.90
70947;DHT22;58605;48.700;8.760;2023-08-17T02:00:19;18.00;93.60
70947;DHT22;58605;48.700;8.760;2023-08-17T02:02:45;18.00;93.40
70947;DHT22;58605;48.700;8.760;2023-08-17T02:05:11;17.90;93.40
70947;DHT22;58605;48.700;8.760;2023-08-17T02:07:37;17.90;93.50
70947;DHT22;58605;48.700;8.760;2023-08-17T02:10:04;18.00;93.60
70947;DHT22;58605;48.700;8.760;2023-08-17T02:12:32;17.90;93.60
70947;DHT22;58605;48.700;8.760;2023-08-17T02:14:58;17.90;93.60
70947;DHT22;58605;48.700;8.760;2023-08-17T02:17:24;18.00;93.50
70947;DHT22;58605;48.700;8.760;2023-08-17T02:19:50;18.00;93.40
70947;DHT22;58605;48.700;8.760;2023-08-17T02:22:16;18.00;93.30
70947;DHT22;58605;48.700;8.760;2023-08-17T02:24:42;18.00;93.30
70947;DHT22;58605;48.700;8.760;2023-08-17T02:27:09;17.90;93.40
70947;DHT22;58605;48.700;8.760;2023-08-17T02:29:36;18.00;93.50
70947;DHT22;58605;48.700;8.760;2023-08-17T02:32:03;18.00;93.50
70947;DHT22;58605;48.700;8.760;2023-08-17T02:34:29;18.10;93.50
70947;DHT22;58605;48.700;8.760;2023-08-17T02:36:55;18.10;93.50
70947;DHT22;58605;48.700;8.760;2023-08-17T02:39:21;18.10;93.50
70947;DHT22;58605;48.700;8.760;2023-08-17T02:41:47;18.20;93.80
70947;DHT22;58605;48.700;8.760;2023-08-17T02:44:15;18.20;93.50
70947;DHT22;58605;48.700;8.760;2023-08-17T02:46:43;18.10;93.40
70947;DHT22;58605;48.700;8.760;2023-08-17T02:49:09;18.20;93.30
70947;DHT22;58605;48.700;8.760;2023-08-17T02:51:35;18.20;93.00
70947;DHT22;58605;48.700;8.760;2023-08-17T02:54:01;18.40;92.70
70947;DHT22;58605;48.700;8.760;2023-08-17T02:56:27;18.30;92.40
70947;DHT22;58605;48.700;8.760;2023-08-17T02:58:53;18.30;92.40
70947;DHT22;58605;48.700;8.760;2023-08-17T03:01:19;18.40;92.40
70947;DHT22;58605;48.700;8.760;2023-08-17T03:03:47;18.40;92.20
70947;DHT22;58605;48.700;8.760;2023-08-17T03:06:13;18.40;92.20
70947;DHT22;58605;48.700;8.760;2023-08-17T03:08:39;18.40;91.90
70947;DHT22;58605;48.700;8.760;2023-08-17T03:11:05;18.40;91.90
70947;DHT22;58605;48.700;8.760;2023-08-17T03:13:33;18.30;91.90
70947;DHT22;58605;48.700;8.760;2023-08-17T03:15:59;18.20;92.00
70947;DHT22;58605;48.700;8.760;2023-08-17T03:18:25;18.20;92.10
70947;DHT22;58605;48.700;8.760;2023-08-17T03:20:52;18.20;92.10
70947;DHT22;58605;48.700;8.760;2023-08-17T03:23:19;18.20;92.20
70947;DHT22;58605;48.700;8.760;2023-08-17T03:25:45;18.10;92.20
70947;DHT22;58605;48.700;8.760;2023-08-17T03:28:11;18.10;92.30
70947;DHT22;58605;48.700;8.760;2023-08-17T03:30:37;18.00;92.40
70947;DHT22;58605;48.700;8.760;2023-08-17T03:33:04;18.00;92.40
70947;DHT22;58605;48.700;8.760;2023-08-17T03:35:30;18.00;92.50
70947;DHT22;58605;48.700;8.760;2023-08-17T03:37:57;18.00;92.60
70947;DHT22;58605;48.700;8.760;2023-08-17T03:40:23;18.10;92.50
70947;DHT22;58605;48.700;8.760;2023-08-17T03:42:49;18.20;92.70
70947;DHT22;58605;48.700;8.760;2023-08-17T03:45:16;18.20;92.40
70947;DHT22;58605;48.700;8.760;2023-08-17T03:47:42;18.10;92.50
70947;DHT22;58605;48.700;8.760;2023-08-17T03:50:09;18.20;92.30
70947;DHT22;58605;48.700;8.760;2023-08-17T03:52:35;18.30;92.10
70947;DHT22;58605;48.700;8.760;2023-08-17T03:55:09;18.20;92.10
70947;DHT22;58605;48.700;8.760;2023-08-17T03:57:35;18.20;92.10
70947;DHT22;58605;48.700;8.760;2023-08-17T04:00:02;18.20;92.20
70947;DHT22;58605;48.700;8.760;2023-08-17T04:02:29;18.20;92.10
70947;DHT22;58605;48.700;8.760;2023-08-17T04:04:55;18.20;92.10
70947;DHT22;58605;48.700;8.760;2023-08-17T04:07:21;18.20;92.10
70947;DHT22;58605;48.700;8.760;2023-08-17T04:09:48;18.10;92.20
70947;DHT22;58605;48.700;8.760;2023-08-17T04:12:16;18.10;92.20
70947;DHT22;58605;48.700;8.760;2023-08-17T04:14:42;18.20;92.40
70947;DHT22;58605;48.700;8.760;2023-08-17T04:17:08;18.20;92.30
70947;DHT22;58605;48.700;8.760;2023-08-17T04:19:34;18.30;92.10
70947;DHT22;58605;48.700;8.760;2023-08-17T04:22:00;18.40;92.00
70947;DHT22;58605;48.700;8.760;2023-08-17T04:24:26;18.40;91.80
70947;DHT22;58605;48.700;8.760;2023-08-17T04:26:52;18.40;91.80
70947;DHT22;58605;48.700;8.760;2023-08-17T04:29:19;18.50;91.70
70947;DHT22;58605;48.700;8.760;2023-08-17T04:31:45;18.50;91.80
70947;DHT22;58605;48.700;8.760;2023-08-17T04:34:12;18.40;91.90
70947;DHT22;58605;48.700;8.760;2023-08-17T04:36:38;18.30;92.00
70947;DHT22;58605;48.700;8.760;2023-08-17T04:39:04;18.40;92.30
70947;DHT22;58605;48.700;8.760;2023-08-17T04:41:30;18.30;92.30
70947;DHT22;58605;48.700;8.760;2023-08-17T04:43:56;18.30;92.20
70947;DHT22;58605;48.700;8.760;2023-08-17T04:46:24;18.30;92.60
70947;DHT22;58605;48.700;8.760;2023-08-17T04:48:50;18.30;92.50
70947;DHT22;58605;48.700;8.760;2023-08-17T04:51:16;18.40;92.40
70947;DHT22;58605;48.700;8.760;2023-08-17T04:53:42;18.30;92.40
70947;DHT22;58605;48.700;8.760;2023-08-17T04:56:08;18.40;92.40
70947;DHT22;58605;48.700;8.760;2023-08-17T04:58:34;18.40;92.30
70947;DHT22;58605;48.700;8.760;2023-08-17T05:01:00;18.40;92.20
70947;DHT22;58605;48.700;8.760;2023-08-17T05:03:28;18.40;92.00
70947;DHT22;58605;48.700;8.760;2023-08-17T05:05:54;18.40;92.00
70947;DHT22;58605;48.700;8.760;2023-08-17T05:08:20;18.30;92.00
70947;DHT22;58605;48.700;8.760;2023-08-17T05:10:48;18.30;92.20
70947;DHT22;58605;48.700;8.760;2023-08-17T05:13:14;18.40;92.20
70947;DHT22;58605;48.700;8.760;2023-08-17T05:15:40;18.40;92.00
70947;DHT22;58605;48.700;8.760;2023-08-17T05:18:07;18.50;91.90
70947;DHT22;58605;48.700;8.760;2023-08-17T05:20:35;18.30;91.90
70947;DHT22;58605;48.700;8.760;2023-08-17T05:23:01;18.20;92.20
70947;DHT22;58605;48.700;8.760;2023-08-17T05:25:27;18.00;92.40
70947;DHT22;58605;48.700;8.760;2023-08-17T05:27:55;18.00;92.70
70947;DHT22;58605;48.700;8.760;2023-08-17T05:30:21;18.00;92.70
70947;DHT22;58605;48.700;8.760;2023-08-17T05:32:47;18.00;92.80
70947;DHT22;58605;48.700;8.760;2023-08-17T05:35:13;18.20;92.60
70947;DHT22;58605;48.700;8.760;2023-08-17T05:37:41;18.20;92.60
70947;DHT22;58605;48.700;8.760;2023-08-17T05:40:08;18.30;92.50
70947;DHT22;58605;48.700;8.760;2023-08-17T05:42:34;18.30;92.40
70947;DHT22;58605;48.700;8.760;2023-08-17T05:45:01;18.30;92.40
70947;DHT22;58605;48.700;8.760;2023-08-17T05:47:27;18.20;92.40
70947;DHT22;58605;48.700;8.760;2023-08-17T05:49:53;18.30;92.50
70947;DHT22;58605;48.700;8.760;2023-08-17T05:52:19;18.30;92.40
70947;DHT22;58605;48.700;8.760;2023-08-17T05:54:47;18.30;92.40
70947;DHT22;58605;48.700;8.760;2023-08-17T05:57:13;18.30;92.40
70947;DHT22;58605;48.700;8.760;2023-08-17T05:59:39;18.30;92.40
70947;DHT22;58605;48.700;8.760;2023-08-17T06:02:05;18.40;92.50
70947;DHT22;58605;48.700;8.760;2023-08-17T06:04:32;18.30;92.60
70947;DHT22;58605;48.700;8.760;2023-08-17T06:06:58;18.20;92.90
70947;DHT22;58605;48.700;8.760;2023-08-17T06:09:26;18.10;93.00
70947;DHT22;58605;48.700;8.760;2023-08-17T06:11:53;18.20;93.30
70947;DHT22;58605;48.700;8.760;2023-08-17T06:14:20;18.30;93.10
70947;DHT22;58605;48.700;8.760;2023-08-17T06:16:46;18.30;93.00
70947;DHT22;58605;48.700;8.760;2023-08-17T06:19:12;18.30;92.90
70947;DHT22;58605;48.700;8.760;2023-08-17T06:21:38;18.20;92.90
70947;DHT22;58605;48.700;8.760;2023-08-17T06:24:05;18.10;93.20
70947;DHT22;58605;48.700;8.760;2023-08-17T06:26:31;18.20;93.30
70947;DHT22;58605;48.700;8.760;2023-08-17T06:28:59;18.30;93.20
70947;DHT22;58605;48.700;8.760;2023-08-17T06:31:25;18.40;93.10
70947;DHT22;58605;48.700;8.760;2023-08-17T06:33:53;18.60;93.00
70947;DHT22;58605;48.700;8.760;2023-08-17T06:36:19;18.70;92.60
70947;DHT22;58605;48.700;8.760;2023-08-17T06:38:45;18.60;92.50
70947;DHT22;58605;48.700;8.760;2023-08-17T06:41:12;18.50;92.60
70947;DHT22;58605;48.700;8.760;2023-08-17T06:43:38;18.50;92.60
70947;DHT22;58605;48.700;8.760;2023-08-17T06:46:06;18.50;92.70
70947;DHT22;58605;48.700;8.760;2023-08-17T06:48:32;18.40;92.90
70947;DHT22;58605;48.700;8.760;2023-08-17T06:50:58;18.40;93.00
70947;DHT22;58605;48.700;8.760;2023-08-17T06:53:24;18.30;93.20
70947;DHT22;58605;48.700;8.760;2023-08-17T06:55:50;18.30;93.20
70947;DHT22;58605;48.700;8.760;2023-08-17T06:58:16;18.40;93.30
70947;DHT22;58605;48.700;8.760;2023-08-17T07:00:42;18.50;93.40
70947;DHT22;58605;48.700;8.760;2023-08-17T07:03:11;18.60;93.60
70947;DHT22;58605;48.700;8.760;2023-08-17T07:05:37;18.70;93.90
70947;DHT22;58605;48.700;8.760;2023-08-17T07:08:04;18.80;93.90
70947;DHT22;58605;48.700;8.760;2023-08-17T07:10:30;18.90;93.80
70947;DHT22;58605;48.700;8.760;2023-08-17T07:12:56;19.00;93.70
70947;DHT22;58605;48.700;8.760;2023-08-17T07:15:22;19.30;93.60
70947;DHT22;58605;48.700;8.760;2023-08-17T07:17:48;19.40;93.30
70947;DHT22;58605;48.700;8.760;2023-08-17T07:20:16;19.50;92.90
70947;DHT22;58605;48.700;8.760;2023-08-17T07:22:42;19.60;92.60
70947;DHT22;58605;48.700;8.760;2023-08-17T07:25:08;19.70;92.60
70947;DHT22;58605;48.700;8.760;2023-08-17T07:27:34;19.70;92.70
70947;DHT22;58605;48.700;8.760;2023-08-17T07:30:02;19.70;92.90
70947;DHT22;58605;48.700;8.760;2023-08-17T07:32:28;19.80;93.00
70947;DHT22;58605;48.700;8.760;2023-08-17T07:34:55;19.80;93.00
70947;DHT22;58605;48.700;8.760;2023-08-17T07:37:22;19.90;92.60
70947;DHT22;58605;48.700;8.760;2023-08-17T07:39:49;19.90;92.70
70947;DHT22;58605;48.700;8.760;2023-08-17T07:42:15;19.90;92.50
70947;DHT22;58605;48.700;8.760;2023-08-17T07:44:41;19.80;92.90
70947;DHT22;58605;48.700;8.760;2023-08-17T07:47:07;20.00;93.60
70947;DHT22;58605;48.700;8.760;2023-08-17T07:49:33;20.10;93.70
70947;DHT22;58605;48.700;8.760;2023-08-17T07:52:00;20.20;93.50
70947;DHT22;58605;48.700;8.760;2023-08-17T07:54:27;20.40;93.60
70947;DHT22;58605;48.700;8.760;2023-08-17T07:56:53;20.60;93.30
70947;DHT22;58605;48.700;8.760;2023-08-17T07:59:19;20.70;93.30
70947;DHT22;58605;48.700;8.760;2023-08-17T08:01:45;20.90;92.50
70947;DHT22;58605;48.700;8.760;2023-08-17T08:04:11;21.00;92.10
70947;DHT22;58605;48.700;8.760;2023-08-17T08:06:38;21.00;92.30
70947;DHT22;58605;48.700;8.760;2023-08-17T08:09:04;21.10;92.30
70947;DHT22;58605;48.700;8.760;2023-08-17T08:11:32;21.20;92.30
70947;DHT22;58605;48.700;8.760;2023-08-17T08:13:58;21.10;92.60
70947;DHT22;58605;48.700;8.760;2023-08-17T08:16:24;21.10;93.00
70947;DHT22;58605;48.700;8.760;2023-08-17T08:18:50;21.10;93.00
70947;DHT22;58605;48.700;8.760;2023-08-17T08:21:16;21.30;92.90
70947;DHT22;58605;48.700;8.760;2023-08-17T08:23:42;21.50;92.70
70947;DHT22;58605;48.700;8.760;2023-08-17T08:26:08;21.60;92.30
70947;DHT22;58605;48.700;8.760;2023-08-17T08:28:36;21.60;92.10
70947;DHT22;58605;48.700;8.760;2023-08-17T08:31:02;21.90;92.00
70947;DHT22;58605;48.700;8.760;2023-08-17T08:33:31;21.90;91.50
70947;DHT22;58605;48.700;8.760;2023-08-17T08:35:58;22.00;91.30
70947;DHT22;58605;48.700;8.760;2023-08-17T08:38:24;21.90;91.30
70947;DHT22;58605;48.700;8.760;2023-08-17T08:40:50;22.00;91.30
70947;DHT22;58605;48.700;8.760;2023-08-17T08:43:17;22.10;91.50
70947;DHT22;58605;48.700;8.760;2023-08-17T08:45:45;22.30;91.00
70947;DHT22;58605;48.700;8.760;2023-08-17T08:48:13;22.40;90.60
70947;DHT22;58605;48.700;8.760;2023-08-17T08:50:41;22.20;90.30
70947;DHT22;58605;48.700;8.760;2023-08-17T08:53:11;22.30;90.30
70947;DHT22;58605;48.700;8.760;2023-08-17T08:55:46;22.10;90.20
70947;DHT22;58605;48.700;8.760;2023-08-17T08:58:14;22.00;90.10
70947;DHT22;58605;48.700;8.760;2023-08-17T09:00:41;21.80;90.30
70947;DHT22;58605;48.700;8.760;2023-08-17T09:03:10;21.70;90.20
70947;DHT22;58605;48.700;8.760;2023-08-17T09:05:37;21.70;90.20
70947;DHT22;58605;48.700;8.760;2023-08-17T09:08:04;21.70;90.50
70947;DHT22;58605;48.700;8.760;2023-08-17T09:10:32;21.60;90.50
70947;DHT22;58605;48.700;8.760;2023-08-17T09:12:58;21.60;90.40
70947;DHT22;58605;48.700;8.760;2023-08-17T09:15:24;21.50;90.30
70947;DHT22;58605;48.700;8.760;2023-08-17T09:17:50;21.50;90.20
70947;DHT22;58605;48.700;8.760;2023-08-17T09:20:36;21.50;89.50
70947;DHT22;58605;48.700;8.760;2023-08-17T09:23:10;21.50;88.90
70947;DHT22;58605;48.700;8.760;2023-08-17T09:25:39;21.50;88.60
70947;DHT22;58605;48.700;8.760;2023-08-17T09:28:09;21.50;88.50
70947;DHT22;58605;48.700;8.760;2023-08-17T09:30:50;21.50;88.90
70947;DHT22;58605;48.700;8.760;2023-08-17T09:33:18;21.50;88.30
70947;DHT22;58605;48.700;8.760;2023-08-17T09:35:45;21.50;88.10
70947;DHT22;58605;48.700;8.760;2023-08-17T09:38:11;21.50;88.20
70947;DHT22;58605;48.700;8.760;2023-08-17T09:40:37;21.50;87.90
70947;DHT22;58605;48.700;8.760;2023-08-17T09:43:04;21.50;87.70
70947;DHT22;58605;48.700;8.760;2023-08-17T09:45:30;21.50;87.60
70947;DHT22;58605;48.700;8.760;2023-08-17T09:47:59;21.50;87.70
70947;DHT22;58605;48.700;8.760;2023-08-17T09:50:25;21.70;88.80
70947;DHT22;58605;48.700;8.760;2023-08-17T09:52:54;21.80;86.80
70947;DHT22;58605;48.700;8.760;2023-08-17T09:55:22;21.70;86.50
70947;DHT22;58605;48.700;8.760;2023-08-17T09:57:49;21.70;86.60
70947;DHT22;58605;48.700;8.760;2023-08-17T10:00:16;21.70;87.60
70947;DHT22;58605;48.700;8.760;2023-08-17T10:02:44;21.70;86.30
70947;DHT22;58605;48.700;8.760;2023-08-17T10:05:11;21.70;86.30
70947;DHT22;58605;48.700;8.760;2023-08-17T10:07:41;21.70;86.20
70947;DHT22;58605;48.700;8.760;2023-08-17T10:10:10;21.60;86.40
70947;DHT22;58605;48.700;8.760;2023-08-17T10:12:41;21.60;86.40
70947;DHT22;58605;48.700;8.760;2023-08-17T10:15:11;21.60;86.40
70947;DHT22;58605;48.700;8.760;2023-08-17T10:20:25;21.70;86.70
70947;DHT22;58605;48.700;8.760;2023-08-17T10:22:55;21.70;86.40
70947;DHT22;58605;48.700;8.760;2023-08-17T10:25:27;21.70;86.60
70947;DHT22;58605;48.700;8.760;2023-08-17T10:27:54;21.70;86.40
70947;DHT22;58605;48.700;8.760;2023-08-17T10:30:21;21.60;86.80
70947;DHT22;58605;48.700;8.760;2023-08-17T10:32:47;21.50;87.00
70947;DHT22;58605;48.700;8.760;2023-08-17T10:35:14;21.50;87.30
70947;DHT22;58605;48.700;8.760;2023-08-17T10:37:41;21.50;87.30
70947;DHT22;58605;48.700;8.760;2023-08-17T10:40:08;21.70;88.10
70947;DHT22;58605;48.700;8.760;2023-08-17T10:42:36;21.70;88.00
70947;DHT22;58605;48.700;8.760;2023-08-17T10:45:26;21.70;87.60
70947;DHT22;58605;48.700;8.760;2023-08-17T10:48:00;21.70;87.20
70947;DHT22;58605;48.700;8.760;2023-08-17T10:50:26;21.80;87.30
70947;DHT22;58605;48.700;8.760;2023-08-17T10:52:54;21.80;87.30
70947;DHT22;58605;48.700;8.760;2023-08-17T10:55:35;21.80;86.80
70947;DHT22;58605;48.700;8.760;2023-08-17T10:58:04;21.80;86.90
70947;DHT22;58605;48.700;8.760;2023-08-17T11:00:35;21.90;86.70
70947;DHT22;58605;48.700;8.760;2023-08-17T11:03:04;21.90;86.50
70947;DHT22;58605;48.700;8.760;2023-08-17T11:05:41;21.90;86.80
70947;DHT22;58605;48.700;8.760;2023-08-17T11:08:09;21.90;86.80
70947;DHT22;58605;48.700;8.760;2023-08-17T11:10:35;21.80;87.10
70947;DHT22;58605;48.700;8.760;2023-08-17T11:13:04;21.80;87.10
70947;DHT22;58605;48.700;8.760;2023-08-17T11:15:38;21.80;86.90
70947;DHT22;58605;48.700;8.760;2023-08-17T11:18:06;21.70;86.80
70947;DHT22;58605;48.700;8.760;2023-08-17T11:20:33;21.70;87.00
70947;DHT22;58605;48.700;8.760;2023-08-17T11:22:59;21.80;87.00
70947;DHT22;58605;48.700;8.760;2023-08-17T11:25:26;21.80;87.00
70947;DHT22;58605;48.700;8.760;2023-08-17T11:27:53;21.80;86.90
70947;DHT22;58605;48.700;8.760;2023-08-17T11:30:21;21.80;86.80
70947;DHT22;58605;48.700;8.760;2023-08-17T11:32:51;21.80;86.70
70947;DHT22;58605;48.700;8.760;2023-08-17T11:35:18;22.00;86.60
70947;DHT22;58605;48.700;8.760;2023-08-17T11:37:44;22.30;85.60
70947;DHT22;58605;48.700;8.760;2023-08-17T11:40:11;22.30;85.40
70947;DHT22;58605;48.700;8.760;2023-08-17T11:42:37;22.20;85.60
70947;DHT22;58605;48.700;8.760;2023-08-17T11:45:05;22.10;85.60
70947;DHT22;58605;48.700;8.760;2023-08-17T11:47:32;22.10;85.80
70947;DHT22;58605;48.700;8.760;2023-08-17T11:50:02;22.10;85.90
70947;DHT22;58605;48.700;8.760;2023-08-17T11:52:29;22.00;85.90
70947;DHT22;58605;48.700;8.760;2023-08-17T11:54:57;22.00;86.00
70947;DHT22;58605;48.700;8.760;2023-08-17T11:57:23;22.00;86.10
70947;DHT22;58605;48.700;8.760;2023-08-17T11:59:53;22.40;85.90
70947;DHT22;58605;48.700;8.760;2023-08-17T12:02:27;23.60;83.00
70947;DHT22;58605;48.700;8.760;2023-08-17T12:04:55;24.20;80.50
70947;DHT22;58605;48.700;8.760;2023-08-17T12:07:23;24.10;79.30
70947;DHT22;58605;48.700;8.760;2023-08-17T12:09:50;23.40;80.60
70947;DHT22;58605;48.700;8.760;2023-08-17T12:12:18;22.90;83.10
70947;DHT22;58605;48.700;8.760;2023-08-17T12:14:46;22.90;78.50
70947;DHT22;58605;48.700;8.760;2023-08-17T12:17:14;23.00;79.20
70947;DHT22;58605;48.700;8.760;2023-08-17T12:19:41;22.80;81.10
70947;DHT22;58605;48.700;8.760;2023-08-17T12:22:08;22.70;80.40
70947;DHT22;58605;48.700;8.760;2023-08-17T12:24:35;22.70;79.80
70947;DHT22;58605;48.700;8.760;2023-08-17T12:27:02;22.70;77.40
70947;DHT22;58605;48.700;8.760;2023-08-17T12:29:29;22.30;79.90
70947;DHT22;58605;48.700;8.760;2023-08-17T12:31:57;21.90;84.10
70947;DHT22;58605;48.700;8.760;2023-08-17T12:34:23;21.80;85.90
70947;DHT22;58605;48.700;8.760;2023-08-17T12:36:49;21.90;85.60
70947;DHT22;58605;48.700;8.760;2023-08-17T12:39:17;22.10;86.60
70947;DHT22;58605;48.700;8.760;2023-08-17T12:41:43;22.20;85.90
70947;DHT22;58605;48.700;8.760;2023-08-17T12:44:10;22.00;85.70
70947;DHT22;58605;48.700;8.760;2023-08-17T12:46:39;22.00;86.90
70947;DHT22;58605;48.700;8.760;2023-08-17T12:49:05;22.30;85.60
70947;DHT22;58605;48.700;8.760;2023-08-17T12:51:32;22.30;85.00
70947;DHT22;58605;48.700;8.760;2023-08-17T12:53:58;22.40;84.50
70947;DHT22;58605;48.700;8.760;2023-08-17T12:56:25;22.50;84.80
70947;DHT22;58605;48.700;8.760;2023-08-17T12:58:52;22.60;86.00
70947;DHT22;58605;48.700;8.760;2023-08-17T13:01:18;22.50;86.70
70947;DHT22;58605;48.700;8.760;2023-08-17T13:03:44;22.40;86.20
70947;DHT22;58605;48.700;8.760;2023-08-17T13:06:10;22.50;86.10
70947;DHT22;58605;48.700;8.760;2023-08-17T13:08:36;22.50;86.10
70947;DHT22;58605;48.700;8.760;2023-08-17T13:11:02;22.50;85.80
70947;DHT22;58605;48.700;8.760;2023-08-17T13:13:30;22.40;86.30
70947;DHT22;58605;48.700;8.760;2023-08-17T13:15:56;22.40;86.80
70947;DHT22;58605;48.700;8.760;2023-08-17T13:18:22;22.40;87.10
70947;DHT22;58605;48.700;8.760;2023-08-17T13:20:48;22.50;88.20
70947;DHT22;58605;48.700;8.760;2023-08-17T13:23:14;22.50;88.10
70947;DHT22;58605;48.700;8.760;2023-08-17T13:25:41;22.50;88.00
70947;DHT22;58605;48.700;8.760;2023-08-17T13:28:07;22.50;89.00
70947;DHT22;58605;48.700;8.760;2023-08-17T13:30:34;22.50;89.20
70947;DHT22;58605;48.700;8.760;2023-08-17T13:33:00;22.60;89.60
70947;DHT22;58605;48.700;8.760;2023-08-17T13:35:26;22.60;89.30
70947;DHT22;58605;48.700;8.760;2023-08-17T13:37:53;22.70;90.10
70947;DHT22;58605;48.700;8.760;2023-08-17T13:40:23;22.70;90.30
70947;DHT22;58605;48.700;8.760;2023-08-17T13:42:49;22.80;90.70
70947;DHT22;58605;48.700;8.760;2023-08-17T13:45:16;22.80;90.10
70947;DHT22;58605;48.700;8.760;2023-08-17T13:47:43;22.70;89.00
70947;DHT22;58605;48.700;8.760;2023-08-17T13:50:10;22.90;90.40
70947;DHT22;58605;48.700;8.760;2023-08-17T13:52:36;23.00;90.20
70947;DHT22;58605;48.700;8.760;2023-08-17T13:55:03;23.30;90.30
70947;DHT22;58605;48.700;8.760;2023-08-17T13:57:29;23.40;90.00
70947;DHT22;58605;48.700;8.760;2023-08-17T13:59:55;23.40;89.50
70947;DHT22;58605;48.700;8.760;2023-08-17T14:02:21;23.50;88.80
70947;DHT22;58605;48.700;8.760;2023-08-17T14:04:49;23.60;88.60
70947;DHT22;58605;48.700;8.760;2023-08-17T14:07:15;23.60;88.30
70947;DHT22;58605;48.700;8.760;2023-08-17T14:09:41;23.70;88.00
70947;DHT22;58605;48.700;8.760;2023-08-17T14:12:08;23.70;88.10
70947;DHT22;58605;48.700;8.760;2023-08-17T14:14:34;23.50;87.90
70947;DHT22;58605;48.700;8.760;2023-08-17T14:17:00;23.30;88.00
70947;DHT22;58605;48.700;8.760;2023-08-17T14:19:28;23.20;87.90
70947;DHT22;58605;48.700;8.760;2023-08-17T14:21:56;23.00;87.80
70947;DHT22;58605;48.700;8.760;2023-08-17T14:24:22;23.00;87.50
70947;DHT22;58605;48.700;8.760;2023-08-17T14:26:48;23.10;88.20
70947;DHT22;58605;48.700;8.760;2023-08-17T14:29:14;23.20;87.70
70947;DHT22;58605;48.700;8.760;2023-08-17T14:31:40;23.30;90.00
70947;DHT22;58605;48.700;8.760;2023-08-17T14:34:13;23.70;88.70
70947;DHT22;58605;48.700;8.760;2023-08-17T14:36:40;23.50;88.60
70947;DHT22;58605;48.700;8.760;2023-08-17T14:39:08;23.40;87.50
70947;DHT22;58605;48.700;8.760;2023-08-17T14:41:34;23.20;86.40
70947;DHT22;58605;48.700;8.760;2023-08-17T14:44:00;23.10;87.30
70947;DHT22;58605;48.700;8.760;2023-08-17T14:46:27;23.10;88.80
70947;DHT22;58605;48.700;8.760;2023-08-17T14:48:53;23.30;87.10
70947;DHT22;58605;48.700;8.760;2023-08-17T14:51:19;23.20;85.80
70947;DHT22;58605;48.700;8.760;2023-08-17T14:53:45;23.20;85.70
70947;DHT22;58605;48.700;8.760;2023-08-17T14:56:12;23.60;88.70
70947;DHT22;58605;48.700;8.760;2023-08-17T14:58:38;24.30;85.70
70947;DHT22;58605;48.700;8.760;2023-08-17T15:01:05;24.40;84.70
70947;DHT22;58605;48.700;8.760;2023-08-17T15:03:32;24.20;82.30
70947;DHT22;58605;48.700;8.760;2023-08-17T15:05:59;24.00;82.80
70947;DHT22;58605;48.700;8.760;2023-08-17T15:08:25;23.80;83.20
70947;DHT22;58605;48.700;8.760;2023-08-17T15:10:51;23.90;81.60
70947;DHT22;58605;48.700;8.760;2023-08-17T15:13:19;24.40;76.40
70947;DHT22;58605;48.700;8.760;2023-08-17T15:15:45;24.10;80.60
70947;DHT22;58605;48.700;8.760;2023-08-17T15:18:11;23.80;81.90
70947;DHT22;58605;48.700;8.760;2023-08-17T15:20:37;23.80;82.20
70947;DHT22;58605;48.700;8.760;2023-08-17T15:23:04;23.70;82.80
70947;DHT22;58605;48.700;8.760;2023-08-17T15:25:30;23.80;81.90
70947;DHT22;58605;48.700;8.760;2023-08-17T15:27:56;23.70;82.30
70947;DHT22;58605;48.700;8.760;2023-08-17T15:30:24;23.50;82.90
70947;DHT22;58605;48.700;8.760;2023-08-17T15:32:50;23.30;83.50